Time;durP1;ratioP1;P1;durP2;ratioP2;P2;SDS_P1;SDS_P2;PMS_P1;PMS_P2;Temp;Humidity;BMP_temperature;BMP_pressure;BME280_temperature;BME280_humidity;BME280_pressure;Samples;Min_cycle;Max_cycle;Signal;HPM_P1;HPM_P2
2022/01/09 00:00:09;;;;;;;14.02;7.03;;;;;;;4.65;53.16;99616.44;6181336;22;96811;-73
2022/01/09 00:02:36;;;;;;;11.93;6.78;;;;;;;4.46;54.10;99615.25;6181924;22;96692;-74
2022/01/09 00:05:02;;;;;;;13.65;6.57;;;;;;;4.50;53.96;99611.63;6180697;22;98807;-74
2022/01/09 00:07:28;;;;;;;14.13;6.25;;;;;;;4.70;53.28;99612.78;6181254;22;99048;-73
2022/01/09 00:09:56;;;;;;;12.20;5.80;;;;;;;4.69;53.04;99600.59;6182312;22;96611;-74
2022/01/09 00:12:22;;;;;;;14.30;6.57;;;;;;;4.57;53.25;99600.09;6181791;22;96842;-73
2022/01/09 00:14:50;;;;;;;15.52;6.97;;;;;;;4.89;52.33;99613.09;6180213;22;99364;-74
2022/01/09 00:17:16;;;;;;;11.93;6.50;;;;;;;4.97;51.87;99605.84;6179850;22;99598;-73
2022/01/09 00:19:43;;;;;;;9.52;6.25;;;;;;;4.99;51.50;99590.94;6181840;22;96685;-73
2022/01/09 00:22:09;;;;;;;15.32;6.05;;;;;;;4.88;52.02;99590.41;6180186;22;96746;-73
2022/01/09 00:24:35;;;;;;;10.25;5.03;;;;;;;5.19;50.50;99587.69;6180622;22;98989;-74
2022/01/09 00:27:02;;;;;;;13.98;5.75;;;;;;;5.02;50.83;99582.16;6179377;22;98846;-74
2022/01/09 00:29:28;;;;;;;15.68;5.90;;;;;;;4.89;51.04;99583.44;6181071;22;96688;-75
2022/01/09 00:31:56;;;;;;;11.60;5.63;;;;;;;5.08;50.60;99574.94;6180986;22;96587;-74
2022/01/09 00:34:22;;;;;;;13.10;5.30;;;;;;;4.84;51.07;99570.50;6180958;22;99456;-75
2022/01/09 00:36:49;;;;;;;9.65;5.60;;;;;;;4.93;50.99;99566.72;6179807;22;98780;-73
2022/01/09 00:39:15;;;;;;;14.25;5.75;;;;;;;4.75;51.32;99576.00;6180225;22;96942;-74
2022/01/09 00:41:41;;;;;;;13.07;6.00;;;;;;;4.58;51.04;99565.19;6181343;22;96953;-73
2022/01/09 00:44:09;;;;;;;10.20;5.28;;;;;;;4.42;51.05;99556.94;6181568;22;99294;-74
2022/01/09 00:46:35;;;;;;;13.90;5.35;;;;;;;4.37;52.14;99564.06;6179261;22;97621;-72
2022/01/09 00:49:03;;;;;;;12.07;5.47;;;;;;;4.33;52.18;99558.03;6180518;22;97123;-74
2022/01/09 00:51:30;;;;;;;11.20;5.05;;;;;;;4.42;51.61;99551.69;6179125;22;97081;-74
2022/01/09 00:53:56;;;;;;;12.77;5.70;;;;;;;4.37;52.62;99557.06;6180810;22;99193;-74
2022/01/09 00:56:22;;;;;;;14.77;6.00;;;;;;;4.08;52.33;99550.94;6180245;22;99003;-74
2022/01/09 00:58:49;;;;;;;10.02;4.38;;;;;;;4.07;52.30;99542.25;6180617;22;96520;-74
2022/01/09 01:01:15;;;;;;;9.27;5.00;;;;;;;4.21;52.47;99547.94;6180344;22;97058;-74
2022/01/09 01:03:41;;;;;;;8.45;4.85;;;;;;;4.37;51.83;99543.13;6179588;22;98138;-73
2022/01/09 01:06:09;;;;;;;11.30;5.75;;;;;;;4.40;52.18;99538.66;6180666;22;99320;-75
2022/01/09 01:08:35;;;;;;;12.18;5.45;;;;;;;4.36;51.52;99541.41;6180640;22;97228;-74
2022/01/09 01:11:02;;;;;;;7.13;4.65;;;;;;;4.44;51.11;99528.13;6180229;22;96698;-74
2022/01/09 01:13:28;;;;;;;10.65;4.90;;;;;;;4.38;51.20;99534.38;6180954;22;99283;-74
2022/01/09 01:15:54;;;;;;;9.07;4.30;;;;;;;4.39;51.46;99529.13;6179774;22;98911;-74
2022/01/09 01:18:21;;;;;;;11.88;4.32;;;;;;;4.38;51.56;99537.88;6180268;22;96957;-74
2022/01/09 01:20:47;;;;;;;13.80;5.25;;;;;;;4.04;52.13;99528.41;6180623;22;96842;-74
2022/01/09 01:23:15;;;;;;;9.50;5.10;;;;;;;4.31;51.43;99517.16;6181585;22;98929;-74
2022/01/09 01:25:44;;;;;;;9.45;5.13;;;;;;;3.81;52.58;99522.06;6180558;22;99670;-74
2022/01/09 01:28:10;;;;;;;11.02;5.38;;;;;;;4.09;52.09;99508.22;6181465;22;96577;-73
2022/01/09 01:30:38;;;;;;;8.57;5.18;;;;;;;4.30;51.11;99513.69;6181618;22;96823;-74
2022/01/09 01:33:04;;;;;;;12.27;5.95;;;;;;;4.08;51.74;99504.75;6181512;22;98862;-74
2022/01/09 01:35:31;;;;;;;10.98;4.95;;;;;;;4.43;51.92;99505.47;6181318;22;98853;-74
2022/01/09 01:37:57;;;;;;;16.02;6.55;;;;;;;4.59;51.00;99493.66;6183543;22;96571;-74
2022/01/09 01:40:25;;;;;;;12.18;5.50;;;;;;;4.48;51.03;99499.19;6187549;22;96480;-73
2022/01/09 01:42:52;;;;;;;12.23;5.85;;;;;;;4.61;50.52;99489.22;6191977;22;97775;-74
2022/01/09 01:45:18;;;;;;;14.20;6.60;;;;;;;4.84;50.41;99480.66;6197257;22;100607;-74
2022/01/09 01:47:45;;;;;;;10.43;5.85;;;;;;;4.44;50.81;99476.66;6200346;22;96433;-75
2022/01/09 01:50:13;;;;;;;10.45;5.82;;;;;;;4.54;51.09;99479.84;6197880;22;96694;-75
2022/01/09 01:52:44;;;;;;;13.15;5.55;;;;;;;4.55;51.14;99469.31;6178022;22;99085;-75
2022/01/09 01:55:13;;;;;;;11.27;6.00;;;;;;;4.51;51.10;99472.09;6179219;22;98823;-75
2022/01/09 01:57:43;;;;;;;11.15;5.97;;;;;;;4.47;51.16;99473.06;6182159;22;96524;-74
2022/01/09 02:00:12;;;;;;;14.90;6.88;;;;;;;4.52;50.61;99472.06;6184389;22;96770;-76
2022/01/09 02:02:39;;;;;;;13.25;5.78;;;;;;;4.50;51.53;99462.53;6182026;22;99069;-74
2022/01/09 02:05:06;;;;;;;12.25;6.00;;;;;;;4.60;51.23;99462.19;6184397;22;99591;-73
2022/01/09 02:07:33;;;;;;;16.77;6.75;;;;;;;4.72;50.66;99455.72;6179603;22;97002;-76
2022/01/09 02:10:00;;;;;;;14.13;6.30;;;;;;;4.59;50.83;99457.03;6181426;22;96688;-75
2022/01/09 02:12:26;;;;;;;9.73;5.47;;;;;;;4.44;51.23;99440.03;6181013;22;98957;-74
2022/01/09 02:14:54;;;;;;;17.02;6.10;;;;;;;4.65;50.71;99444.59;6184761;22;96797;-77
2022/01/09 02:17:22;;;;;;;9.98;5.50;;;;;;;4.68;50.47;99441.88;6181503;22;96503;-76
2022/01/09 02:19:52;;;;;;;12.93;6.20;;;;;;;4.82;49.88;99447.53;6181742;22;96789;-75
2022/01/09 02:22:19;;;;;;;11.05;5.22;;;;;;;4.61;50.39;99447.34;6182730;22;100216;-75
2022/01/09 02:24:45;;;;;;;10.80;5.63;;;;;;;4.84;49.50;99442.25;6188950;22;98825;-75
2022/01/09 02:27:11;;;;;;;16.92;5.70;;;;;;;4.82;49.56;99430.97;6185722;22;96563;-75
2022/01/09 02:29:38;;;;;;;13.55;5.97;;;;;;;4.29;50.80;99416.97;6183665;22;97169;-75
2022/01/09 02:32:05;;;;;;;13.70;5.90;;;;;;;4.35;50.80;99419.41;6182693;22;98948;-76
2022/01/09 02:34:33;;;;;;;14.55;6.28;;;;;;;4.57;50.86;99419.59;6185010;22;99238;-74
2022/01/09 02:37:00;;;;;;;15.50;6.40;;;;;;;4.55;50.56;99416.16;6189639;22;96805;-76
2022/01/09 02:39:27;;;;;;;12.82;6.90;;;;;;;4.47;50.86;99408.53;6191375;22;97229;-76
2022/01/09 02:41:54;;;;;;;13.98;6.63;;;;;;;4.46;50.84;99416.47;6186891;22;99083;-75
2022/01/09 02:44:20;;;;;;;14.25;6.22;;;;;;;4.25;51.13;99397.91;6189734;22;99573;-74
2022/01/09 02:46:56;;;;;;;14.73;6.75;;;;;;;4.49;50.80;99404.13;6184573;22;96534;-77
2022/01/09 02:49:25;;;;;;;14.27;6.53;;;;;;;4.33;50.88;99395.06;6183216;22;97082;-76
2022/01/09 02:51:51;;;;;;;13.07;6.40;;;;;;;4.65;50.25;99396.66;6185735;22;98849;-75
2022/01/09 02:57:04;;;;;;;15.93;6.55;;;;;;;4.45;51.28;99397.28;6184773;22;96740;-76
2022/01/09 02:59:30;;;;;;;15.98;6.93;;;;;;;4.13;51.54;99382.63;6185415;22;97363;-75
2022/01/09 03:01:56;;;;;;;11.90;6.07;;;;;;;4.15;51.94;99386.03;6186272;22;99069;-75
2022/01/09 03:04:23;;;;;;;12.50;6.45;;;;;;;4.36;51.46;99384.50;6185255;22;99285;-76
2022/01/09 03:06:49;;;;;;;14.80;6.88;;;;;;;4.24;51.61;99380.53;6180241;22;96651;-75
2022/01/09 03:09:15;;;;;;;15.70;7.50;;;;;;;4.20;50.92;99371.03;6181083;22;96692;-75
2022/01/09 03:11:45;;;;;;;13.65;6.70;;;;;;;4.21;51.75;99372.75;6181223;22;99355;-76
2022/01/09 03:14:11;;;;;;;18.55;6.63;;;;;;;4.07;51.76;99372.31;6181336;22;99187;-76
2022/01/09 03:16:38;;;;;;;15.32;7.40;;;;;;;4.11;51.59;99366.13;6181783;22;96708;-75
2022/01/09 03:19:04;;;;;;;17.70;6.93;;;;;;;4.23;51.38;99363.13;6181738;22;96757;-73
2022/01/09 03:21:30;;;;;;;11.57;6.03;;;;;;;3.96;52.30;99351.75;6182082;22;99085;-75
2022/01/09 03:23:57;;;;;;;15.75;6.65;;;;;;;4.38;51.72;99359.16;6182223;22;98070;-74
2022/01/09 03:26:23;;;;;;;12.80;6.72;;;;;;;4.06;51.92;99354.97;6180731;22;97191;-74
2022/01/09 03:28:51;;;;;;;13.75;6.45;;;;;;;4.11;52.50;99362.66;6181823;22;96760;-74
2022/01/09 03:31:17;;;;;;;13.60;7.20;;;;;;;4.47;51.29;99340.53;6179384;22;99301;-74
2022/01/09 03:33:43;;;;;;;15.57;6.47;;;;;;;4.50;50.74;99345.69;6180818;22;99165;-75
2022/01/09 03:36:10;;;;;;;14.27;6.72;;;;;;;4.57;51.22;99346.31;6181990;22;96586;-76
2022/01/09 03:38:36;;;;;;;14.10;6.20;;;;;;;4.64;50.78;99343.47;6180915;22;96940;-75
2022/01/09 03:41:02;;;;;;;15.07;6.57;;;;;;;4.29;51.26;99341.13;6181338;22;98946;-74
2022/01/09 03:43:28;;;;;;;14.90;6.15;;;;;;;4.51;51.21;99342.16;6180997;22;99192;-74
2022/01/09 03:45:56;;;;;;;17.55;6.47;;;;;;;4.45;51.08;99336.28;6182286;22;97021;-73
2022/01/09 03:48:22;;;;;;;11.90;6.28;;;;;;;4.60;50.25;99343.59;6182354;22;97192;-74
2022/01/09 03:50:51;;;;;;;18.02;6.13;;;;;;;4.57;50.50;99341.09;6180849;22;99390;-74
2022/01/09 03:53:18;;;;;;;14.80;7.05;;;;;;;4.35;51.23;99340.94;6180362;22;98923;-74
2022/01/09 03:55:44;;;;;;;12.75;5.72;;;;;;;4.48;50.93;99342.25;6180937;22;97370;-75
2022/01/09 03:58:10;;;;;;;13.15;6.07;;;;;;;4.55;51.04;99340.28;6181549;22;96701;-75
2022/01/09 04:00:37;;;;;;;12.18;6.15;;;;;;;4.51;51.40;99336.06;6181156;22;99340;-74
2022/01/09 04:03:04;;;;;;;18.02;5.85;;;;;;;4.69;50.91;99332.84;6182200;22;98628;-74
2022/01/09 04:05:31;;;;;;;14.68;6.18;;;;;;;4.55;50.77;99341.13;6181932;22;96632;-74
2022/01/09 04:07:57;;;;;;;11.55;6.30;;;;;;;4.41;50.78;99328.53;6181310;22;98332;-74
2022/01/09 04:10:28;;;;;;;13.38;5.88;;;;;;;4.48;50.89;99338.78;6180738;22;98929;-75
2022/01/09 04:12:59;;;;;;;15.75;5.88;;;;;;;4.71;50.58;99331.03;6181165;22;99241;-75
2022/01/09 04:15:27;;;;;;;12.38;6.43;;;;;;;4.40;51.12;99328.56;6181808;22;97079;-75
2022/01/09 04:17:54;;;;;;;10.38;5.35;;;;;;;4.35;50.91;99335.72;6181517;22;96710;-74
2022/01/09 04:20:24;;;;;;;12.63;5.40;;;;;;;4.37;50.51;99334.75;6180359;22;99314;-75
2022/01/09 04:22:50;;;;;;;14.45;5.63;;;;;;;4.31;51.02;99331.50;6180742;22;98790;-76
2022/01/09 04:25:17;;;;;;;13.45;5.35;;;;;;;4.31;51.32;99324.50;6181486;22;96556;-75
2022/01/09 04:27:45;;;;;;;11.15;5.75;;;;;;;4.30;50.94;99325.41;6180446;22;96724;-74
2022/01/09 04:30:12;;;;;;;9.80;5.32;;;;;;;4.54;50.43;99321.13;6187437;22;99070;-73
2022/01/09 04:32:38;;;;;;;10.40;5.57;;;;;;;4.24;51.12;99311.69;6193300;22;98928;-75
2022/01/09 04:35:06;;;;;;;10.60;5.20;;;;;;;4.32;51.61;99302.69;6189129;22;96604;-74
2022/01/09 04:37:35;;;;;;;12.57;5.30;;;;;;;4.25;51.31;99290.72;6187485;22;96786;-75
2022/01/09 04:40:02;;;;;;;10.85;5.22;;;;;;;4.70;50.34;99285.69;6181091;22;98787;-75
2022/01/09 04:42:35;;;;;;;11.63;5.18;;;;;;;4.29;50.85;99294.94;6181089;22;99317;-74
2022/01/09 04:45:01;;;;;;;12.93;4.78;;;;;;;4.46;50.77;99294.38;6180442;22;97158;-76
2022/01/09 04:47:27;;;;;;;10.55;5.45;;;;;;;4.41;50.90;99293.66;6180337;22;96847;-74
2022/01/09 04:49:54;;;;;;;15.10;4.95;;;;;;;4.37;50.44;99292.91;6180991;22;98588;-75
2022/01/09 04:52:24;;;;;;;10.13;4.53;;;;;;;4.41;50.61;99291.03;6180420;22;99185;-75
2022/01/09 04:54:52;;;;;;;7.68;4.20;;;;;;;4.46;49.74;99283.06;6181705;22;96662;-77
2022/01/09 04:57:18;;;;;;;10.50;4.57;;;;;;;4.09;51.38;99281.66;6180983;22;96706;-74
2022/01/09 04:59:45;;;;;;;9.52;4.68;;;;;;;4.11;51.29;99285.06;6180359;22;99199;-77
2022/01/09 05:02:11;;;;;;;10.50;4.10;;;;;;;4.15;51.70;99285.81;6181370;22;98819;-75
2022/01/09 05:04:37;;;;;;;8.90;4.25;;;;;;;4.33;50.38;99280.00;6182311;22;96607;-75
2022/01/09 05:07:04;;;;;;;7.68;4.18;;;;;;;3.95;51.70;99286.47;6182279;22;96659;-74
2022/01/09 05:09:30;;;;;;;9.93;4.30;;;;;;;4.51;50.43;99278.53;6180317;22;99072;-75
2022/01/09 05:11:58;;;;;;;12.45;4.35;;;;;;;4.60;49.97;99281.66;6181839;22;97794;-75
2022/01/09 05:14:24;;;;;;;11.95;4.70;;;;;;;4.49;50.14;99285.56;6180805;22;96774;-75
2022/01/09 05:16:51;;;;;;;8.77;3.60;;;;;;;4.14;50.83;99289.34;6181480;22;96726;-75
2022/01/09 05:19:20;;;;;;;12.43;4.57;;;;;;;4.21;50.60;99296.94;6179866;22;99121;-74
2022/01/09 05:21:48;;;;;;;8.05;4.07;;;;;;;4.44;50.11;99303.19;6180296;22;98986;-75
2022/01/09 05:24:15;;;;;;;8.07;4.50;;;;;;;4.41;50.17;99298.88;6180902;22;97172;-75
2022/01/09 05:26:41;;;;;;;8.30;4.07;;;;;;;4.59;50.35;99302.66;6181495;22;96823;-74
2022/01/09 05:29:09;;;;;;;5.93;3.78;;;;;;;4.63;49.95;99289.41;6180995;22;99358;-74
2022/01/09 05:31:35;;;;;;;10.15;4.20;;;;;;;4.50;49.88;99288.13;6180513;22;98963;-74
2022/01/09 05:34:01;;;;;;;8.52;4.18;;;;;;;4.45;49.58;99286.59;6180341;22;97160;-75
2022/01/09 05:36:28;;;;;;;11.18;4.82;;;;;;;4.65;49.89;99286.75;6181424;22;96780;-75
2022/01/09 05:38:54;;;;;;;10.25;3.92;;;;;;;4.75;49.26;99277.66;6180815;22;98992;-74
2022/01/09 05:41:21;;;;;;;9.13;4.53;;;;;;;4.57;49.56;99280.94;6180682;22;98843;-76
2022/01/09 05:43:47;;;;;;;12.50;3.83;;;;;;;4.62;49.73;99284.22;6181450;22;96943;-75
2022/01/09 05:46:15;;;;;;;11.00;3.80;;;;;;;4.78;49.12;99288.03;6180459;22;96820;-74
2022/01/09 05:48:41;;;;;;;9.32;4.20;;;;;;;4.63;49.56;99288.56;6180571;22;99439;-73
2022/01/09 05:51:08;;;;;;;9.90;4.13;;;;;;;4.91;48.57;99267.53;6180537;22;98917;-74
2022/01/09 05:53:34;;;;;;;11.23;4.10;;;;;;;4.82;49.44;99279.16;6180749;22;96628;-76
2022/01/09 05:56:00;;;;;;;9.23;4.32;;;;;;;4.80;48.92;99279.22;6181643;22;96622;-76
2022/01/09 05:58:27;;;;;;;11.93;4.55;;;;;;;4.81;48.78;99277.44;6181050;22;98993;-75
2022/01/09 06:00:53;;;;;;;8.73;4.00;;;;;;;4.58;49.46;99290.50;6180508;22;99012;-75
2022/01/09 06:03:20;;;;;;;9.82;4.43;;;;;;;4.35;49.90;99289.50;6180776;22;96775;-74
2022/01/09 06:05:47;;;;;;;15.10;5.15;;;;;;;4.73;49.46;99276.84;6179605;22;96809;-76
2022/01/09 06:08:13;;;;;;;10.32;4.32;;;;;;;4.63;49.86;99289.41;6180430;22;98959;-76
2022/01/09 06:10:39;;;;;;;9.30;4.47;;;;;;;4.77;49.51;99288.94;6179961;22;98944;-74
2022/01/09 06:13:06;;;;;;;8.23;4.25;;;;;;;4.72;49.09;99283.88;6183235;22;96683;-75
2022/01/09 06:15:32;;;;;;;8.77;4.00;;;;;;;5.13;48.86;99279.75;6181684;22;96689;-75
2022/01/09 06:17:58;;;;;;;8.02;4.30;;;;;;;5.00;48.69;99275.03;6180644;22;97644;-76
2022/01/09 06:20:26;;;;;;;14.20;4.25;;;;;;;5.09;47.65;99278.19;6179337;22;99261;-76
2022/01/09 06:22:52;;;;;;;13.32;4.28;;;;;;;4.79;48.96;99274.06;6180340;22;96567;-76
2022/01/09 06:25:19;;;;;;;9.57;4.40;;;;;;;4.82;48.94;99280.03;6180461;22;96737;-76
2022/01/09 06:27:45;;;;;;;8.15;4.03;;;;;;;5.00;48.68;99278.50;6180767;22;99126;-75
2022/01/09 06:30:12;;;;;;;9.57;3.97;;;;;;;4.86;48.98;99280.75;6179504;22;99305;-76
2022/01/09 06:32:38;;;;;;;10.30;4.75;;;;;;;4.77;49.32;99283.72;6182064;22;96695;-77
2022/01/09 06:35:06;;;;;;;8.40;4.25;;;;;;;5.16;48.46;99277.03;6181847;22;97123;-75
2022/01/09 06:37:34;;;;;;;10.60;4.15;;;;;;;5.06;48.94;99280.91;6181015;22;99185;-76
2022/01/09 06:40:01;;;;;;;7.13;3.72;;;;;;;4.75;49.04;99283.75;6181445;22;98988;-75
2022/01/09 06:42:27;;;;;;;9.65;4.05;;;;;;;5.05;48.54;99286.22;6181715;22;96593;-75
2022/01/09 06:44:53;;;;;;;8.73;3.75;;;;;;;5.12;48.36;99288.53;6182671;22;96942;-75
2022/01/09 06:47:19;;;;;;;9.00;4.22;;;;;;;4.96;48.73;99284.75;6179994;22;99060;-75
2022/01/09 06:49:46;;;;;;;8.32;3.92;;;;;;;5.16;48.02;99284.91;6181462;22;99024;-74
2022/01/09 06:52:12;;;;;;;10.68;4.25;;;;;;;4.99;48.38;99282.03;6180790;22;96701;-74
2022/01/09 06:54:40;;;;;;;6.55;4.13;;;;;;;4.88;48.22;99278.09;6182486;22;96973;-74
2022/01/09 06:57:07;;;;;;;8.98;4.13;;;;;;;5.30;47.63;99278.31;6179849;22;98838;-76
2022/01/09 06:59:33;;;;;;;9.75;4.25;;;;;;;5.28;47.89;99280.97;6181650;22;99234;-74
2022/01/09 07:01:59;;;;;;;10.43;4.20;;;;;;;4.97;48.50;99278.63;6182065;22;96575;-75
2022/01/09 07:04:26;;;;;;;11.85;4.78;;;;;;;5.12;48.18;99279.84;6196881;22;96560;-75
2022/01/09 07:06:52;;;;;;;7.32;3.88;;;;;;;5.23;47.77;99269.81;6198439;22;99163;-74
2022/01/09 07:09:18;;;;;;;8.70;4.18;;;;;;;5.36;47.49;99271.06;6195159;22;97614;-75
2022/01/09 07:11:46;;;;;;;8.80;4.53;;;;;;;5.33;48.06;99275.53;6189786;22;97014;-72
2022/01/09 07:14:14;;;;;;;10.70;4.85;;;;;;;5.40;47.27;99266.56;6182585;22;96672;-75
2022/01/09 07:16:40;;;;;;;10.32;4.07;;;;;;;5.11;47.59;99272.88;6182019;22;99410;-75
2022/01/09 07:19:07;;;;;;;9.52;4.43;;;;;;;5.17;48.53;99275.28;6181193;22;98955;-75
2022/01/09 07:21:33;;;;;;;8.73;4.47;;;;;;;5.13;48.22;99269.28;6181446;22;96791;-74
2022/01/09 07:23:59;;;;;;;8.93;4.28;;;;;;;5.11;47.93;99273.75;6181917;22;96839;-74
2022/01/09 07:26:25;;;;;;;9.05;4.90;;;;;;;5.20;47.94;99272.53;6182178;22;99139;-75
2022/01/09 07:28:53;;;;;;;7.82;4.15;;;;;;;5.55;47.39;99281.69;6180905;22;99073;-75
2022/01/09 07:31:19;;;;;;;9.48;4.35;;;;;;;5.24;47.35;99273.28;6181252;22;97111;-76
2022/01/09 07:33:46;;;;;;;10.15;4.72;;;;;;;5.14;48.00;99281.47;6181756;22;97121;-75
2022/01/09 07:36:14;;;;;;;8.55;3.88;;;;;;;5.08;47.51;99271.22;6181198;22;99617;-75
2022/01/09 07:38:40;;;;;;;11.80;4.95;;;;;;;5.53;47.19;99271.28;6179711;22;98789;-76
2022/01/09 07:41:08;;;;;;;9.95;4.60;;;;;;;5.43;47.48;99272.53;6182254;22;96824;-76
2022/01/09 07:43:34;;;;;;;10.60;5.15;;;;;;;5.43;47.33;99274.31;6182123;22;96723;-77
2022/01/09 07:46:02;;;;;;;13.57;5.10;;;;;;;5.47;46.99;99284.59;6181933;22;99309;-76
2022/01/09 07:48:28;;;;;;;9.88;4.93;;;;;;;5.60;47.19;99282.38;6180793;22;98937;-75
2022/01/09 07:50:55;;;;;;;10.60;4.13;;;;;;;5.74;46.80;99287.06;6202157;22;96706;-75
2022/01/09 07:53:23;;;;;;;10.40;4.30;;;;;;;5.74;45.80;99294.94;6194994;22;96617;-75
2022/01/09 07:55:51;;;;;;;13.77;5.47;;;;;;;5.87;46.23;99291.81;6188342;22;98198;-73
2022/01/09 07:58:18;;;;;;;9.38;5.10;;;;;;;5.68;46.43;99289.94;6184910;22;98811;-75
2022/01/09 08:00:44;;;;;;;9.68;5.72;;;;;;;5.73;46.44;99290.59;6185049;22;96519;-75
2022/01/09 08:03:13;;;;;;;10.85;5.15;;;;;;;5.67;46.46;99289.09;6182019;22;96754;-73
2022/01/09 08:05:40;;;;;;;10.32;4.93;;;;;;;5.78;46.39;99291.28;6181538;22;98557;-75
2022/01/09 08:08:07;;;;;;;9.25;5.07;;;;;;;5.72;46.12;99299.38;6180621;22;99271;-76
2022/01/09 08:10:34;;;;;;;12.75;5.18;;;;;;;5.65;46.55;99290.03;6183559;22;97034;-75
2022/01/09 08:13:00;;;;;;;10.35;4.88;;;;;;;5.46;46.48;99282.03;6189471;22;96726;-75
2022/01/09 08:15:27;;;;;;;10.70;5.18;;;;;;;5.54;46.19;99285.22;6186854;22;99143;-75
2022/01/09 08:17:54;;;;;;;11.85;5.88;;;;;;;5.36;46.91;99285.94;6183103;22;98143;-75
2022/01/09 08:20:22;;;;;;;11.68;5.65;;;;;;;5.92;46.06;99289.00;6180965;22;97192;-75
2022/01/09 08:22:48;;;;;;;10.75;5.18;;;;;;;6.02;44.74;99284.25;6182817;22;96738;-75
2022/01/09 08:25:17;;;;;;;14.02;5.82;;;;;;;5.95;45.44;99286.28;6181993;22;99667;-75
2022/01/09 08:27:45;;;;;;;11.95;5.53;;;;;;;6.16;44.69;99274.94;6182034;22;98948;-76
2022/01/09 08:30:13;;;;;;;11.35;4.90;;;;;;;5.89;45.47;99287.38;6180307;22;98460;-75
2022/01/09 08:32:40;;;;;;;13.55;5.72;;;;;;;5.89;45.64;99292.63;6183774;22;97079;-76
2022/01/09 08:35:07;;;;;;;12.00;5.22;;;;;;;6.12;45.14;99285.59;6181869;22;99108;-74
2022/01/09 08:37:36;;;;;;;10.05;5.30;;;;;;;6.21;45.13;99287.84;6181134;22;97626;-75
2022/01/09 08:40:03;;;;;;;12.07;5.07;;;;;;;6.06;45.58;99281.44;6182376;22;96851;-76
2022/01/09 08:42:30;;;;;;;11.57;5.10;;;;;;;6.13;45.40;99287.31;6183039;22;97430;-75
2022/01/09 08:44:56;;;;;;;11.20;5.22;;;;;;;6.35;44.66;99282.91;6183006;22;99050;-75
2022/01/09 09:01:04;;;;;;;10.40;5.07;;;;;;;6.25;45.09;99290.28;6170994;22;98074;-77
2022/01/09 09:03:32;;;;;;;9.93;5.30;;;;;;;6.25;45.26;99286.78;6184232;22;96720;-77
2022/01/09 09:06:01;;;;;;;12.57;5.10;;;;;;;6.25;45.20;99299.91;6186053;22;98870;-80
2022/01/09 09:08:28;;;;;;;11.80;5.65;;;;;;;6.04;44.93;99295.56;6189122;22;98767;-77
2022/01/09 09:11:06;;;;;;;9.98;5.22;;;;;;;6.29;44.98;99293.63;6186356;22;96806;-78
2022/01/09 09:13:33;;;;;;;10.57;5.15;;;;;;;6.74;44.18;99289.09;6182955;22;96656;-77
2022/01/09 09:16:02;;;;;;;12.73;5.55;;;;;;;6.86;43.32;99295.56;6176355;22;99815;-78
2022/01/09 09:18:30;;;;;;;14.18;5.30;;;;;;;6.85;43.51;99298.25;6179960;22;100317;-79
2022/01/09 09:21:16;;;;;;;14.15;5.13;;;;;;;6.66;44.25;99295.56;6184793;22;96898;-78
2022/01/09 09:23:43;;;;;;;9.23;4.90;;;;;;;6.70;43.61;99300.63;6185424;22;97089;-77
2022/01/09 09:26:10;;;;;;;7.50;4.80;;;;;;;6.72;43.83;99301.41;6181113;22;102677;-77
2022/01/09 09:28:37;;;;;;;10.13;4.90;;;;;;;6.87;43.39;99293.81;6186818;22;97707;-78
2022/01/09 09:31:03;;;;;;;9.95;5.15;;;;;;;6.93;43.74;99302.28;6183778;22;96560;-76
2022/01/09 09:33:31;;;;;;;10.70;5.38;;;;;;;6.86;43.59;99300.81;6183800;22;97530;-79
2022/01/09 09:35:59;;;;;;;11.85;5.55;;;;;;;6.61;44.01;99298.41;6179905;22;99212;-82
2022/01/09 09:38:27;;;;;;;8.75;4.45;;;;;;;6.59;44.11;99313.34;6188001;22;99267;-76
2022/01/09 09:40:53;;;;;;;9.90;5.38;;;;;;;6.92;43.63;99318.09;6182018;22;96905;-76
2022/01/09 09:43:20;;;;;;;9.43;5.15;;;;;;;6.92;43.12;99326.81;6180515;22;96693;-78
2022/01/09 09:45:46;;;;;;;11.35;4.60;;;;;;;6.89;44.15;99315.59;6180499;22;99056;-77
2022/01/09 09:48:13;;;;;;;10.13;4.93;;;;;;;6.73;43.78;99318.03;6182792;22;99813;-77
2022/01/09 09:50:44;;;;;;;9.40;4.45;;;;;;;6.88;43.46;99321.78;6188766;22;96799;-79
2022/01/09 09:53:11;;;;;;;6.50;3.85;;;;;;;7.11;43.36;99325.09;6185390;22;96626;-77
2022/01/09 09:55:37;;;;;;;11.98;4.78;;;;;;;7.28;42.95;99313.00;6183306;22;100680;-79
2022/01/09 09:58:04;;;;;;;9.13;4.38;;;;;;;7.33;42.80;99322.38;6185535;22;97771;-80
2022/01/09 10:00:32;;;;;;;9.32;4.10;;;;;;;7.26;43.27;99310.44;6184483;22;96591;-80
2022/01/09 10:03:00;;;;;;;8.73;4.80;;;;;;;7.07;42.93;99322.69;6185243;22;96699;-79
2022/01/09 10:05:29;;;;;;;10.05;5.25;;;;;;;6.97;43.68;99309.09;6181291;22;98053;-78
2022/01/09 10:08:07;;;;;;;8.85;4.28;;;;;;;7.16;43.22;99324.88;6184425;22;100924;-79
2022/01/09 10:10:36;;;;;;;9.60;4.63;;;;;;;7.03;43.86;99318.47;6181214;22;96605;-77
2022/01/09 10:13:08;;;;;;;9.70;4.25;;;;;;;7.10;43.56;99322.53;6182707;22;96924;-83
2022/01/09 10:15:51;;;;;;;8.77;4.43;;;;;;;7.11;43.57;99319.00;6182542;22;100288;-77
2022/01/09 10:18:40;;;;;;;8.65;4.68;;;;;;;7.56;42.71;99316.94;6181891;22;98969;-78
2022/01/09 10:22:00;;;;;;;7.07;3.90;;;;;;;7.81;42.32;99331.59;6181287;22;97055;-85
2022/01/09 10:24:31;;;;;;;6.88;4.10;;;;;;;7.36;43.32;99327.47;6186571;22;97096;-80
2022/01/09 10:26:58;;;;;;;9.45;4.53;;;;;;;7.27;44.13;99327.06;6183362;22;98972;-82
2022/01/09 10:29:31;;;;;;;7.25;4.28;;;;;;;7.49;43.51;99328.63;6181205;22;99268;-85
2022/01/09 10:35:12;;;;;;;9.55;3.92;;;;;;;7.56;42.96;99324.81;6095978;22;96913;-77
2022/01/09 10:37:40;;;;;;;7.22;3.72;;;;;;;7.65;42.42;99331.44;6180948;22;98337;-78
2022/01/09 10:40:11;;;;;;;9.45;4.28;;;;;;;7.20;43.53;99326.47;6180987;22;99215;-73
2022/01/09 10:42:38;;;;;;;8.82;4.07;;;;;;;7.48;43.39;99326.94;6183564;22;96992;-77
2022/01/09 10:45:23;;;;;;;6.93;4.18;;;;;;;7.52;43.74;99320.63;6177933;22;96900;-76
2022/01/09 10:47:51;;;;;;;7.50;3.92;;;;;;;7.67;43.17;99323.47;6178429;22;99097;-76
2022/01/09 10:50:26;;;;;;;9.35;4.30;;;;;;;7.80;43.54;99322.00;6178380;22;99224;-77
2022/01/09 10:52:52;;;;;;;5.70;3.38;;;;;;;7.94;42.40;99324.84;6178238;22;97167;-78
2022/01/09 10:55:20;;;;;;;8.23;3.88;;;;;;;7.61;43.26;99329.88;6178942;22;97520;-78
2022/01/09 10:57:47;;;;;;;7.53;3.75;;;;;;;7.68;42.67;99330.44;6177767;22;97623;-76
2022/01/09 11:08:57;;;;;;;6.97;3.83;;;;;;;5.28;50.62;99335.13;5097876;27;100310;-77
2022/01/09 11:11:30;;;;;;;10.73;4.70;;;;;;;6.26;48.14;99343.59;5106567;27;98271;-77
2022/01/09 11:14:00;;;;;;;6.90;4.50;;;;;;;7.13;45.81;99344.28;5106038;27;98817;-78
2022/01/09 11:16:34;;;;;;;6.93;3.20;;;;;;;7.53;44.52;99332.84;5086483;27;99770;-77
2022/01/09 11:19:06;;;;;;;7.55;4.13;;;;;;;7.80;43.91;99345.66;5085373;27;97306;-76
2022/01/09 11:21:34;;;;;;;6.15;3.65;;;;;;;8.23;42.90;99347.97;5089262;22;96787;-73
2022/01/09 11:24:22;;;;;;;7.28;3.80;;;;;;;8.08;42.68;99351.31;5066142;27;98960;-73
2022/01/09 11:26:53;;;;;;;8.60;4.22;;;;;;;7.95;43.67;99350.19;5067708;27;99791;-75
2022/01/09 11:29:26;;;;;;;8.60;4.15;;;;;;;8.38;42.59;99347.25;5064086;27;97404;-72
2022/01/09 11:32:00;;;;;;;9.45;4.35;;;;;;;8.20;42.83;99352.53;5059903;27;97771;-76
2022/01/09 11:34:35;;;;;;;6.28;3.88;;;;;;;7.90;43.41;99352.19;5067957;27;99299;-75
2022/01/09 11:37:13;;;;;;;9.57;3.58;;;;;;;8.14;42.55;99352.81;5065244;27;98073;-77
2022/01/09 11:39:44;;;;;;;7.13;3.75;;;;;;;8.38;43.28;99363.06;5062305;27;97467;-74
2022/01/09 11:42:12;;;;;;;7.55;3.63;;;;;;;8.61;42.70;99356.66;5068698;27;96734;-74
2022/01/09 11:44:46;;;;;;;7.15;3.92;;;;;;;8.64;41.90;99351.25;5066752;27;99192;-75
2022/01/09 11:47:14;;;;;;;7.40;4.13;;;;;;;8.50;42.25;99360.75;5069076;27;98152;-74
2022/01/09 11:50:01;;;;;;;7.40;3.90;;;;;;;8.38;42.27;99368.31;5065302;27;96871;-74
2022/01/09 11:52:30;;;;;;;7.88;4.28;;;;;;;8.04;43.51;99357.66;5067725;27;97616;-76
2022/01/09 11:54:59;;;;;;;7.50;3.53;;;;;;;8.41;43.45;99364.66;5065574;27;98893;-74
2022/01/09 11:57:36;;;;;;;8.88;4.45;;;;;;;8.55;42.58;99364.00;5070588;27;99314;-75
2022/01/09 12:00:05;;;;;;;7.97;3.58;;;;;;;8.74;42.29;99364.78;5063246;27;96722;-76
2022/01/09 12:02:38;;;;;;;6.70;3.88;;;;;;;8.64;42.34;99366.19;5070673;27;96949;-75
2022/01/09 12:05:07;;;;;;;7.28;3.70;;;;;;;8.75;42.13;99362.09;5059825;27;99391;-74
2022/01/09 12:08:09;;;;;;;8.98;3.70;;;;;;;8.73;42.43;99371.00;5067083;27;99144;-76